sensor_id;sensor_type;location;lat;lon;timestamp;pressure;altitude;pressure_sealevel;temperature;humidity
75933;BME280;64803;52.356;5.310;2022-12-17T00:00:29;102659.25;;;-0.77;100.00
75933;BME280;64803;52.356;5.310;2022-12-17T00:03:13;102663.28;;;-0.90;100.00
75933;BME280;64803;52.356;5.310;2022-12-17T00:05:58;102656.50;;;-0.96;100.00
75933;BME280;64803;52.356;5.310;2022-12-17T00:08:42;102658.28;;;-0.96;100.00
75933;BME280;64803;52.356;5.310;2022-12-17T00:11:26;102662.41;;;-0.89;100.00
75933;BME280;64803;52.356;5.310;2022-12-17T00:14:11;102662.94;;;-0.81;100.00
75933;BME280;64803;52.356;5.310;2022-12-17T00:16:55;102664.41;;;-0.74;100.00
75933;BME280;64803;52.356;5.310;2022-12-17T00:19:39;102650.41;;;-0.76;100.00
75933;BME280;64803;52.356;5.310;2022-12-17T00:22:24;102665.81;;;-0.66;100.00
75933;BME280;64803;52.356;5.310;2022-12-17T00:25:08;102659.00;;;-0.71;100.00
75933;BME280;64803;52.356;5.310;2022-12-17T00:27:52;102657.78;;;-0.84;100.00
75933;BME280;64803;52.356;5.310;2022-12-17T00:30:37;102663.66;;;-0.78;100.00
75933;BME280;64803;52.356;5.310;2022-12-17T00:33:21;102662.94;;;-0.81;100.00
75933;BME280;64803;52.356;5.310;2022-12-17T00:36:09;102655.03;;;-0.81;100.00
75933;BME280;64803;52.356;5.310;2022-12-17T00:38:53;102655.38;;;-0.90;100.00
75933;BME280;64803;52.356;5.310;2022-12-17T00:41:38;102658.81;;;-0.88;100.00
75933;BME280;64803;52.356;5.310;2022-12-17T00:44:22;102680.78;;;-0.88;100.00
75933;BME280;64803;52.356;5.310;2022-12-17T00:47:06;102674.09;;;-0.96;100.00
75933;BME280;64803;52.356;5.310;2022-12-17T00:49:51;102681.44;;;-1.04;100.00
75933;BME280;64803;52.356;5.310;2022-12-17T00:52:35;102680.06;;;-1.15;100.00
75933;BME280;64803;52.356;5.310;2022-12-17T00:55:20;102677.38;;;-1.13;100.00
75933;BME280;64803;52.356;5.310;2022-12-17T00:58:04;102678.47;;;-1.19;100.00
75933;BME280;64803;52.356;5.310;2022-12-17T01:00:49;102679.53;;;-1.23;100.00
75933;BME280;64803;52.356;5.310;2022-12-17T01:03:33;102666.34;;;-1.23;100.00
75933;BME280;64803;52.356;5.310;2022-12-17T01:06:18;102678.91;;;-1.07;100.00
75933;BME280;64803;52.356;5.310;2022-12-17T01:09:02;102679.72;;;-1.05;100.00
75933;BME280;64803;52.356;5.310;2022-12-17T01:11:47;102583.53;;;-1.62;100.00
75933;BME280;64803;52.356;5.310;2022-12-17T01:14:32;102679.66;;;-1.04;100.00
75933;BME280;64803;52.356;5.310;2022-12-17T01:17:17;102682.13;;;-0.99;100.00
75933;BME280;64803;52.356;5.310;2022-12-17T01:20:01;102681.19;;;-0.98;100.00
75933;BME280;64803;52.356;5.310;2022-12-17T01:22:46;102679.59;;;-1.02;100.00
75933;BME280;64803;52.356;5.310;2022-12-17T01:25:31;102689.19;;;-1.00;100.00
75933;BME280;64803;52.356;5.310;2022-12-17T01:28:24;102692.72;;;-1.01;100.00
75933;BME280;64803;52.356;5.310;2022-12-17T01:31:10;102697.09;;;-1.00;100.00
75933;BME280;64803;52.356;5.310;2022-12-17T01:33:55;102689.25;;;-1.01;100.00
75933;BME280;64803;52.356;5.310;2022-12-17T01:36:39;102698.13;;;-1.04;100.00
75933;BME280;64803;52.356;5.310;2022-12-17T01:39:24;102676.63;;;-1.17;100.00
75933;BME280;64803;52.356;5.310;2022-12-17T01:42:11;102699.78;;;-1.01;100.00
75933;BME280;64803;52.356;5.310;2022-12-17T01:44:56;102700.59;;;-0.99;100.00
75933;BME280;64803;52.356;5.310;2022-12-17T01:47:49;102703.25;;;-1.01;100.00
75933;BME280;64803;52.356;5.310;2022-12-17T01:50:38;102702.28;;;-0.98;100.00
75933;BME280;64803;52.356;5.310;2022-12-17T01:53:28;102705.88;;;-1.01;100.00
75933;BME280;64803;52.356;5.310;2022-12-17T01:56:14;102687.56;;;-1.04;100.00
75933;BME280;64803;52.356;5.310;2022-12-17T01:59:02;102609.34;;;-1.48;100.00
75933;BME280;64803;52.356;5.310;2022-12-17T02:01:48;102702.41;;;-1.01;100.00
75933;BME280;64803;52.356;5.310;2022-12-17T02:04:33;102695.31;;;-0.99;100.00
75933;BME280;64803;52.356;5.310;2022-12-17T02:16:51;102713.81;;;-1.01;100.00
75933;BME280;64803;52.356;5.310;2022-12-17T02:22:57;102716.41;;;-0.99;100.00
75933;BME280;64803;52.356;5.310;2022-12-17T02:26:01;102718.00;;;-0.95;100.00
75933;BME280;64803;52.356;5.310;2022-12-17T02:28:49;102626.75;;;-1.44;100.00
75933;BME280;64803;52.356;5.310;2022-12-17T02:31:36;102713.78;;;-0.99;100.00
75933;BME280;64803;52.356;5.310;2022-12-17T02:34:23;102718.13;;;-0.98;100.00
75933;BME280;64803;52.356;5.310;2022-12-17T02:37:08;102704.59;;;-1.13;100.00
75933;BME280;64803;52.356;5.310;2022-12-17T02:39:52;102718.47;;;-1.07;100.00
75933;BME280;64803;52.356;5.310;2022-12-17T02:42:36;102694.41;;;-1.22;100.00
75933;BME280;64803;52.356;5.310;2022-12-17T02:45:21;102699.53;;;-1.19;100.00
75933;BME280;64803;52.356;5.310;2022-12-17T02:48:08;102714.91;;;-1.06;100.00
75933;BME280;64803;52.356;5.310;2022-12-17T02:50:56;102726.16;;;-1.01;100.00
75933;BME280;64803;52.356;5.310;2022-12-17T02:53:43;102726.88;;;-0.98;100.00
75933;BME280;64803;52.356;5.310;2022-12-17T02:56:29;102728.53;;;-0.95;100.00
75933;BME280;64803;52.356;5.310;2022-12-17T02:59:13;102725.09;;;-0.97;100.00
75933;BME280;64803;52.356;5.310;2022-12-17T03:02:03;102737.06;;;-0.89;100.00
75933;BME280;64803;52.356;5.310;2022-12-17T03:04:47;102737.38;;;-0.96;100.00
75933;BME280;64803;52.356;5.310;2022-12-17T03:07:32;102740.34;;;-1.05;100.00
75933;BME280;64803;52.356;5.310;2022-12-17T03:10:16;102742.97;;;-1.05;100.00
75933;BME280;64803;52.356;5.310;2022-12-17T03:13:01;102736.78;;;-1.04;100.00
75933;BME280;64803;52.356;5.310;2022-12-17T03:15:45;102738.66;;;-1.06;100.00
75933;BME280;64803;52.356;5.310;2022-12-17T03:18:30;102732.31;;;-1.02;100.00
75933;BME280;64803;52.356;5.310;2022-12-17T03:21:14;102740.06;;;-0.98;100.00
75933;BME280;64803;52.356;5.310;2022-12-17T03:23:59;102747.91;;;-0.96;100.00
75933;BME280;64803;52.356;5.310;2022-12-17T03:26:55;102746.19;;;-0.97;100.00
75933;BME280;64803;52.356;5.310;2022-12-17T03:29:41;102744.34;;;-0.95;100.00
75933;BME280;64803;52.356;5.310;2022-12-17T03:32:25;102747.06;;;-0.97;100.00
75933;BME280;64803;52.356;5.310;2022-12-17T03:35:10;102733.06;;;-0.99;100.00
75933;BME280;64803;52.356;5.310;2022-12-17T03:37:54;102727.97;;;-1.03;100.00
75933;BME280;64803;52.356;5.310;2022-12-17T03:40:39;102733.25;;;-1.03;100.00
75933;BME280;64803;52.356;5.310;2022-12-17T03:43:23;102736.00;;;-1.06;100.00
75933;BME280;64803;52.356;5.310;2022-12-17T03:46:08;102717.09;;;-1.18;100.00
75933;BME280;64803;52.356;5.310;2022-12-17T03:48:52;102737.84;;;-1.08;100.00
75933;BME280;64803;52.356;5.310;2022-12-17T03:51:37;102737.72;;;-1.05;100.00
75933;BME280;64803;52.356;5.310;2022-12-17T03:54:22;102734.28;;;-1.07;100.00
75933;BME280;64803;52.356;5.310;2022-12-17T03:57:06;102746.44;;;-1.03;100.00
75933;BME280;64803;52.356;5.310;2022-12-17T03:59:51;102743.78;;;-1.03;100.00
75933;BME280;64803;52.356;5.310;2022-12-17T04:02:39;102748.13;;;-1.02;100.00
75933;BME280;64803;52.356;5.310;2022-12-17T04:05:23;102743.53;;;-0.97;100.00
75933;BME280;64803;52.356;5.310;2022-12-17T04:08:08;102752.44;;;-1.00;100.00
75933;BME280;64803;52.356;5.310;2022-12-17T04:10:52;102762.88;;;-0.97;100.00
75933;BME280;64803;52.356;5.310;2022-12-17T04:13:37;102758.63;;;-1.01;100.00
75933;BME280;64803;52.356;5.310;2022-12-17T04:16:21;102736.22;;;-1.13;100.00
75933;BME280;64803;52.356;5.310;2022-12-17T04:19:05;102617.00;;;-1.87;100.00
75933;BME280;64803;52.356;5.310;2022-12-17T04:21:50;102758.59;;;-0.99;100.00
75933;BME280;64803;52.356;5.310;2022-12-17T04:24:34;102764.69;;;-0.99;100.00
75933;BME280;64803;52.356;5.310;2022-12-17T04:27:18;102762.00;;;-0.97;100.00
75933;BME280;64803;52.356;5.310;2022-12-17T04:30:03;102772.53;;;-0.97;100.00
75933;BME280;64803;52.356;5.310;2022-12-17T04:32:48;102775.25;;;-0.99;100.00
75933;BME280;64803;52.356;5.310;2022-12-17T04:35:32;102765.75;;;-1.03;100.00
75933;BME280;64803;52.356;5.310;2022-12-17T04:38:17;102780.31;;;-0.93;100.00
75933;BME280;64803;52.356;5.310;2022-12-17T04:41:01;102781.25;;;-0.95;100.00
75933;BME280;64803;52.356;5.310;2022-12-17T04:43:45;102790.09;;;-0.96;100.00
75933;BME280;64803;52.356;5.310;2022-12-17T04:46:30;102779.69;;;-0.99;100.00
75933;BME280;64803;52.356;5.310;2022-12-17T04:49:14;102784.16;;;-1.01;100.00
75933;BME280;64803;52.356;5.310;2022-12-17T04:51:59;102788.47;;;-1.00;100.00
75933;BME280;64803;52.356;5.310;2022-12-17T04:54:44;102784.28;;;-1.06;100.00
75933;BME280;64803;52.356;5.310;2022-12-17T04:57:28;102782.72;;;-1.10;100.00
75933;BME280;64803;52.356;5.310;2022-12-17T05:00:13;102787.00;;;-1.07;100.00
75933;BME280;64803;52.356;5.310;2022-12-17T05:03:10;102783.66;;;-1.13;100.00
75933;BME280;64803;52.356;5.310;2022-12-17T05:06:03;102780.22;;;-1.15;100.00
75933;BME280;64803;52.356;5.310;2022-12-17T05:08:47;102781.25;;;-1.19;100.00
75933;BME280;64803;52.356;5.310;2022-12-17T05:11:32;102765.59;;;-1.23;100.00
75933;BME280;64803;52.356;5.310;2022-12-17T05:14:16;102765.84;;;-1.29;100.00
75933;BME280;64803;52.356;5.310;2022-12-17T05:17:01;102759.84;;;-1.33;100.00
75933;BME280;64803;52.356;5.310;2022-12-17T05:19:45;102765.84;;;-1.29;100.00
75933;BME280;64803;52.356;5.310;2022-12-17T05:22:31;102774.50;;;-1.26;100.00
75933;BME280;64803;52.356;5.310;2022-12-17T05:25:15;102758.22;;;-1.37;100.00
75933;BME280;64803;52.356;5.310;2022-12-17T05:27:59;102780.34;;;-1.18;100.00
75933;BME280;64803;52.356;5.310;2022-12-17T05:30:51;102770.88;;;-1.23;100.00
75933;BME280;64803;52.356;5.310;2022-12-17T05:33:35;102784.88;;;-1.21;100.00
75933;BME280;64803;52.356;5.310;2022-12-17T05:36:20;102777.72;;;-1.18;100.00
75933;BME280;64803;52.356;5.310;2022-12-17T05:39:04;102775.97;;;-1.19;100.00
75933;BME280;64803;52.356;5.310;2022-12-17T05:41:48;102785.69;;;-1.19;100.00
75933;BME280;64803;52.356;5.310;2022-12-17T05:44:33;102782.97;;;-1.18;100.00
75933;BME280;64803;52.356;5.310;2022-12-17T05:47:17;102783.88;;;-1.19;100.00
75933;BME280;64803;52.356;5.310;2022-12-17T05:50:02;102778.66;;;-1.20;100.00
75933;BME280;64803;52.356;5.310;2022-12-17T05:52:46;102786.69;;;-1.23;100.00
75933;BME280;64803;52.356;5.310;2022-12-17T05:55:31;102724.09;;;-1.64;100.00
75933;BME280;64803;52.356;5.310;2022-12-17T05:58:16;102773.78;;;-1.31;100.00
75933;BME280;64803;52.356;5.310;2022-12-17T06:01:03;102783.38;;;-1.28;100.00
75933;BME280;64803;52.356;5.310;2022-12-17T06:03:48;102774.91;;;-1.38;100.00
75933;BME280;64803;52.356;5.310;2022-12-17T06:06:37;102790.59;;;-1.33;100.00
75933;BME280;64803;52.356;5.310;2022-12-17T06:09:21;102790.41;;;-1.29;100.00
75933;BME280;64803;52.356;5.310;2022-12-17T06:12:06;102797.22;;;-1.23;100.00
75933;BME280;64803;52.356;5.310;2022-12-17T06:14:51;102806.81;;;-1.21;100.00
75933;BME280;64803;52.356;5.310;2022-12-17T06:17:35;102811.22;;;-1.21;100.00
75933;BME280;64803;52.356;5.310;2022-12-17T06:20:19;102821.50;;;-1.13;100.00
75933;BME280;64803;52.356;5.310;2022-12-17T06:23:07;102823.16;;;-1.11;100.00
75933;BME280;64803;52.356;5.310;2022-12-17T06:25:53;102825.50;;;-1.03;100.00
75933;BME280;64803;52.356;5.310;2022-12-17T06:28:38;102827.13;;;-0.99;100.00
75933;BME280;64803;52.356;5.310;2022-12-17T06:31:23;102821.88;;;-1.01;100.00
75933;BME280;64803;52.356;5.310;2022-12-17T06:34:08;102821.13;;;-1.04;100.00
75933;BME280;64803;52.356;5.310;2022-12-17T06:36:52;102820.25;;;-1.03;100.00
75933;BME280;64803;52.356;5.310;2022-12-17T06:39:37;102824.69;;;-1.05;100.00
75933;BME280;64803;52.356;5.310;2022-12-17T06:42:21;102823.69;;;-1.01;100.00
75933;BME280;64803;52.356;5.310;2022-12-17T06:45:06;102821.94;;;-1.02;100.00
75933;BME280;64803;52.356;5.310;2022-12-17T06:47:51;102821.00;;;-1.00;100.00
75933;BME280;64803;52.356;5.310;2022-12-17T06:50:36;102820.13;;;-1.00;100.00
75933;BME280;64803;52.356;5.310;2022-12-17T06:53:21;102829.84;;;-1.02;100.00
75933;BME280;64803;52.356;5.310;2022-12-17T06:56:05;102815.19;;;-1.09;100.00
75933;BME280;64803;52.356;5.310;2022-12-17T06:58:50;102818.63;;;-1.07;100.00
75933;BME280;64803;52.356;5.310;2022-12-17T07:01:34;102638.31;;;-2.19;100.00
75933;BME280;64803;52.356;5.310;2022-12-17T07:04:19;102828.28;;;-1.06;100.00
75933;BME280;64803;52.356;5.310;2022-12-17T07:07:03;102826.53;;;-1.07;100.00
75933;BME280;64803;52.356;5.310;2022-12-17T07:09:47;102836.38;;;-1.13;100.00
75933;BME280;64803;52.356;5.310;2022-12-17T07:12:32;102832.31;;;-1.21;100.00
75933;BME280;64803;52.356;5.310;2022-12-17T07:15:16;102854.13;;;-1.18;100.00
75933;BME280;64803;52.356;5.310;2022-12-17T07:18:02;102854.03;;;-1.15;100.00
75933;BME280;64803;52.356;5.310;2022-12-17T07:20:48;102848.63;;;-1.12;100.00
75933;BME280;64803;52.356;5.310;2022-12-17T07:23:32;102818.56;;;-1.29;100.00
75933;BME280;64803;52.356;5.310;2022-12-17T07:26:17;102863.31;;;-1.04;100.00
75933;BME280;64803;52.356;5.310;2022-12-17T07:29:02;102841.78;;;-1.16;100.00
75933;BME280;64803;52.356;5.310;2022-12-17T07:31:46;102859.16;;;-1.10;100.00
75933;BME280;64803;52.356;5.310;2022-12-17T07:34:31;102865.94;;;-1.04;100.00
75933;BME280;64803;52.356;5.310;2022-12-17T07:37:15;102857.25;;;-1.06;100.00
75933;BME280;64803;52.356;5.310;2022-12-17T07:39:59;102863.66;;;-1.13;100.00
75933;BME280;64803;52.356;5.310;2022-12-17T07:42:44;102866.50;;;-1.20;100.00
75933;BME280;64803;52.356;5.310;2022-12-17T07:45:28;102862.31;;;-1.25;100.00
75933;BME280;64803;52.356;5.310;2022-12-17T07:48:13;102872.31;;;-1.35;100.00
75933;BME280;64803;52.356;5.310;2022-12-17T07:50:58;102871.50;;;-1.37;100.00
75933;BME280;64803;52.356;5.310;2022-12-17T07:53:42;102879.53;;;-1.40;100.00
75933;BME280;64803;52.356;5.310;2022-12-17T07:56:26;102882.00;;;-1.35;100.00
75933;BME280;64803;52.356;5.310;2022-12-17T07:59:11;102885.38;;;-1.32;100.00
75933;BME280;64803;52.356;5.310;2022-12-17T08:01:55;102881.78;;;-1.29;100.00
75933;BME280;64803;52.356;5.310;2022-12-17T08:04:39;102888.78;;;-1.28;100.00
75933;BME280;64803;52.356;5.310;2022-12-17T08:07:24;102861.03;;;-1.38;100.00
75933;BME280;64803;52.356;5.310;2022-12-17T08:10:09;102796.28;;;-1.70;100.00
75933;BME280;64803;52.356;5.310;2022-12-17T08:12:59;102896.25;;;-1.16;100.00
75933;BME280;64803;52.356;5.310;2022-12-17T08:15:44;102898.94;;;-1.18;100.00
75933;BME280;64803;52.356;5.310;2022-12-17T08:18:29;102818.97;;;-1.66;100.00
75933;BME280;64803;52.356;5.310;2022-12-17T08:21:14;102789.69;;;-1.83;100.00
75933;BME280;64803;52.356;5.310;2022-12-17T08:23:59;102898.94;;;-1.18;100.00
75933;BME280;64803;52.356;5.310;2022-12-17T08:26:44;102904.28;;;-1.19;100.00
75933;BME280;64803;52.356;5.310;2022-12-17T08:29:29;102909.44;;;-1.16;100.00
75933;BME280;64803;52.356;5.310;2022-12-17T08:32:18;102904.22;;;-1.18;100.00
75933;BME280;64803;52.356;5.310;2022-12-17T08:35:03;102916.53;;;-1.18;100.00
75933;BME280;64803;52.356;5.310;2022-12-17T08:37:48;102910.38;;;-1.19;100.00
75933;BME280;64803;52.356;5.310;2022-12-17T08:40:32;102918.34;;;-1.20;100.00
75933;BME280;64803;52.356;5.310;2022-12-17T08:43:17;102913.84;;;-1.17;100.00
75933;BME280;64803;52.356;5.310;2022-12-17T08:46:01;102916.53;;;-1.18;100.00
75933;BME280;64803;52.356;5.310;2022-12-17T08:48:46;102917.28;;;-1.15;100.00
75933;BME280;64803;52.356;5.310;2022-12-17T08:51:30;102925.81;;;-1.06;100.00
75933;BME280;64803;52.356;5.310;2022-12-17T08:54:15;102933.38;;;-0.97;100.00
75933;BME280;64803;52.356;5.310;2022-12-17T08:56:59;102931.59;;;-0.97;100.00
75933;BME280;64803;52.356;5.310;2022-12-17T08:59:44;102931.84;;;-1.03;100.00
75933;BME280;64803;52.356;5.310;2022-12-17T09:02:28;102923.88;;;-1.01;100.00
75933;BME280;64803;52.356;5.310;2022-12-17T09:05:13;102916.97;;;-1.05;100.00
75933;BME280;64803;52.356;5.310;2022-12-17T09:07:59;102920.94;;;-0.94;100.00
75933;BME280;64803;52.356;5.310;2022-12-17T09:10:44;102936.19;;;-0.77;100.00
75933;BME280;64803;52.356;5.310;2022-12-17T09:13:29;102939.25;;;-0.65;100.00
75933;BME280;64803;52.356;5.310;2022-12-17T09:16:19;102885.69;;;-0.91;100.00
75933;BME280;64803;52.356;5.310;2022-12-17T09:19:05;102942.31;;;-0.54;100.00
75933;BME280;64803;52.356;5.310;2022-12-17T09:21:50;102941.94;;;-0.66;100.00
75933;BME280;64803;52.356;5.310;2022-12-17T09:24:34;102940.53;;;-0.76;100.00
75933;BME280;64803;52.356;5.310;2022-12-17T09:27:19;102942.47;;;-0.81;100.00
75933;BME280;64803;52.356;5.310;2022-12-17T09:30:04;102940.69;;;-0.81;100.00
75933;BME280;64803;52.356;5.310;2022-12-17T09:32:49;102949.91;;;-0.92;100.00
75933;BME280;64803;52.356;5.310;2022-12-17T09:35:36;102943.81;;;-0.94;100.00
75933;BME280;64803;52.356;5.310;2022-12-17T09:38:21;102933.47;;;-1.00;100.00
75933;BME280;64803;52.356;5.310;2022-12-17T09:41:25;102945.66;;;-0.96;100.00
75933;BME280;64803;52.356;5.310;2022-12-17T09:47:43;102955.19;;;-0.92;100.00
75933;BME280;64803;52.356;5.310;2022-12-17T09:50:34;102953.44;;;-0.93;100.00
75933;BME280;64803;52.356;5.310;2022-12-17T09:53:23;102961.94;;;-0.85;100.00
75933;BME280;64803;52.356;5.310;2022-12-17T09:56:11;102968.84;;;-0.81;100.00
75933;BME280;64803;52.356;5.310;2022-12-17T09:58:56;102970.47;;;-0.77;100.00
75933;BME280;64803;52.356;5.310;2022-12-17T10:01:41;102981.66;;;-0.71;100.00
75933;BME280;64803;52.356;5.310;2022-12-17T10:04:32;102973.78;;;-0.72;100.00
75933;BME280;64803;52.356;5.310;2022-12-17T10:07:21;102984.22;;;-0.69;100.00
75933;BME280;64803;52.356;5.310;2022-12-17T10:10:19;102979.94;;;-0.72;100.00
75933;BME280;64803;52.356;5.310;2022-12-17T10:13:15;102976.63;;;-0.78;99.90
75933;BME280;64803;52.356;5.310;2022-12-17T10:16:00;102979.28;;;-0.78;100.00
75933;BME280;64803;52.356;5.310;2022-12-17T10:18:46;102973.78;;;-0.72;100.00
75933;BME280;64803;52.356;5.310;2022-12-17T10:21:31;102966.56;;;-0.67;100.00
75933;BME280;64803;52.356;5.310;2022-12-17T10:24:17;102976.25;;;-0.68;99.78
75933;BME280;64803;52.356;5.310;2022-12-17T10:27:10;102969.00;;;-0.61;99.75
75933;BME280;64803;52.356;5.310;2022-12-17T10:29:54;102972.41;;;-0.58;99.46
75933;BME280;64803;52.356;5.310;2022-12-17T10:32:38;102968.91;;;-0.58;100.00
75933;BME280;64803;52.356;5.310;2022-12-17T10:35:34;102985.34;;;-0.52;99.86
75933;BME280;64803;52.356;5.310;2022-12-17T10:38:25;102985.97;;;-0.44;99.78
75933;BME280;64803;52.356;5.310;2022-12-17T10:41:39;102983.25;;;-0.42;99.08
75933;BME280;64803;52.356;5.310;2022-12-17T10:47:15;102990.69;;;-0.53;98.31
75933;BME280;64803;52.356;5.310;2022-12-17T10:50:05;102999.34;;;-0.50;98.33
75933;BME280;64803;52.356;5.310;2022-12-17T10:52:52;102987.03;;;-0.49;98.54
75933;BME280;64803;52.356;5.310;2022-12-17T10:55:52;102947.34;;;-0.71;98.86
75933;BME280;64803;52.356;5.310;2022-12-17T10:58:50;102990.38;;;-0.44;99.47
75933;BME280;64803;52.356;5.310;2022-12-17T11:01:36;102993.06;;;-0.46;99.88
75933;BME280;64803;52.356;5.310;2022-12-17T11:04:29;102999.19;;;-0.45;99.48
75933;BME280;64803;52.356;5.310;2022-12-17T11:07:30;103005.38;;;-0.46;99.48
75933;BME280;64803;52.356;5.310;2022-12-17T11:10:31;102997.25;;;-0.40;99.54
75933;BME280;64803;52.356;5.310;2022-12-17T11:13:37;103004.13;;;-0.36;98.75
75933;BME280;64803;52.356;5.310;2022-12-17T11:16:29;103006.69;;;-0.33;98.85
75933;BME280;64803;52.356;5.310;2022-12-17T11:19:29;103000.59;;;-0.35;98.55
75933;BME280;64803;52.356;5.310;2022-12-17T11:22:30;103004.25;;;-0.39;98.56
75933;BME280;64803;52.356;5.310;2022-12-17T11:25:41;103006.63;;;-0.32;98.65
75933;BME280;64803;52.356;5.310;2022-12-17T11:28:32;103016.19;;;-0.29;98.94
75933;BME280;64803;52.356;5.310;2022-12-17T11:37:31;103005.75;;;-0.32;98.14
75933;BME280;64803;52.356;5.310;2022-12-17T11:40:35;102988.09;;;-0.30;98.51
75933;BME280;64803;52.356;5.310;2022-12-17T11:46:49;102988.97;;;-0.31;98.37
75933;BME280;64803;52.356;5.310;2022-12-17T11:49:39;102990.41;;;-0.23;98.73
75933;BME280;64803;52.356;5.310;2022-12-17T11:52:38;102974.59;;;-0.23;98.20
75933;BME280;64803;52.356;5.310;2022-12-17T11:58:41;102980.59;;;-0.19;98.01
75933;BME280;64803;52.356;5.310;2022-12-17T12:07:41;102980.41;;;-0.13;97.21
75933;BME280;64803;52.356;5.310;2022-12-17T12:10:36;102985.69;;;-0.13;97.14
75933;BME280;64803;52.356;5.310;2022-12-17T12:16:27;102976.47;;;-0.03;96.92
75933;BME280;64803;52.356;5.310;2022-12-17T12:19:25;102978.44;;;-0.08;96.79
75933;BME280;64803;52.356;5.310;2022-12-17T12:22:25;102981.00;;;-0.07;97.26
75933;BME280;64803;52.356;5.310;2022-12-17T12:25:30;102970.28;;;-0.02;96.52
75933;BME280;64803;52.356;5.310;2022-12-17T12:28:20;102962.13;;;0.04;96.93
75933;BME280;64803;52.356;5.310;2022-12-17T12:34:47;102962.88;;;0.08;97.03
75933;BME280;64803;52.356;5.310;2022-12-17T12:37:33;102965.44;;;0.09;96.41
75933;BME280;64803;52.356;5.310;2022-12-17T12:40:30;102976.66;;;0.16;96.97
75933;BME280;64803;52.356;5.310;2022-12-17T12:43:27;102964.22;;;0.18;96.24
75933;BME280;64803;52.356;5.310;2022-12-17T12:51:59;102965.56;;;0.06;96.53
75933;BME280;64803;52.356;5.310;2022-12-17T12:57:40;102966.50;;;0.05;96.76
75933;BME280;64803;52.356;5.310;2022-12-17T13:00:50;102969.88;;;0.09;96.33
75933;BME280;64803;52.356;5.310;2022-12-17T13:03:49;102964.53;;;0.10;96.15
75933;BME280;64803;52.356;5.310;2022-12-17T13:06:54;102963.66;;;0.10;96.07
75933;BME280;64803;52.356;5.310;2022-12-17T13:19:44;102962.31;;;-0.01;96.24
75933;BME280;64803;52.356;5.310;2022-12-17T13:24:42;102957.94;;;-0.02;96.34
75933;BME280;64803;52.356;5.310;2022-12-17T13:27:33;102954.50;;;-0.04;96.14
75933;BME280;64803;52.356;5.310;2022-12-17T13:42:49;102953.19;;;-0.15;96.17
75933;BME280;64803;52.356;5.310;2022-12-17T13:45:18;102950.53;;;-0.15;96.21
75933;BME280;64803;52.356;5.310;2022-12-17T13:47:53;102957.50;;;-0.13;95.95
75933;BME280;64803;52.356;5.310;2022-12-17T13:50:23;102963.06;;;-0.20;96.13
75933;BME280;64803;52.356;5.310;2022-12-17T13:52:50;102960.28;;;-0.17;96.40
75933;BME280;64803;52.356;5.310;2022-12-17T13:55:20;102969.03;;;-0.15;96.36
75933;BME280;64803;52.356;5.310;2022-12-17T13:57:48;102964.91;;;-0.22;96.34
75933;BME280;64803;52.356;5.310;2022-12-17T14:00:20;102963.19;;;-0.23;96.60
75933;BME280;64803;52.356;5.310;2022-12-17T14:02:47;102912.28;;;-0.50;96.46
75933;BME280;64803;52.356;5.310;2022-12-17T14:05:29;102978.84;;;-0.19;96.68
75933;BME280;64803;52.356;5.310;2022-12-17T14:08:00;102978.91;;;-0.20;96.62
75933;BME280;64803;52.356;5.310;2022-12-17T14:10:27;102978.22;;;-0.25;97.04
75933;BME280;64803;52.356;5.310;2022-12-17T14:13:05;102981.06;;;-0.31;97.03
75933;BME280;64803;52.356;5.310;2022-12-17T14:15:33;102976.03;;;-0.37;97.20
75933;BME280;64803;52.356;5.310;2022-12-17T14:18:00;102991.06;;;-0.39;97.33
75933;BME280;64803;52.356;5.310;2022-12-17T14:20:30;102981.63;;;-0.46;97.24
75933;BME280;64803;52.356;5.310;2022-12-17T14:23:05;102979.38;;;-0.57;97.82
75933;BME280;64803;52.356;5.310;2022-12-17T14:25:37;102981.97;;;-0.55;97.32
75933;BME280;64803;52.356;5.310;2022-12-17T14:30:46;102985.03;;;-0.67;98.12
75933;BME280;64803;52.356;5.310;2022-12-17T14:35:55;102997.28;;;-0.65;97.24
75933;BME280;64803;52.356;5.310;2022-12-17T14:38:22;102990.50;;;-0.72;98.26
75933;BME280;64803;52.356;5.310;2022-12-17T14:40:49;102987.19;;;-0.78;97.87
75933;BME280;64803;52.356;5.310;2022-12-17T14:43:15;102992.00;;;-0.89;97.99
75933;BME280;64803;52.356;5.310;2022-12-17T14:45:50;102988.41;;;-0.88;98.00
75933;BME280;64803;52.356;5.310;2022-12-17T14:48:37;103002.72;;;-0.95;98.68
75933;BME280;64803;52.356;5.310;2022-12-17T14:51:41;103003.78;;;-1.01;99.02
75933;BME280;64803;52.356;5.310;2022-12-17T14:56:40;102997.97;;;-1.10;99.20
75933;BME280;64803;52.356;5.310;2022-12-17T14:59:29;102998.09;;;-1.13;99.47
75933;BME280;64803;52.356;5.310;2022-12-17T15:01:56;102998.13;;;-1.15;99.16
75933;BME280;64803;52.356;5.310;2022-12-17T15:04:24;103000.88;;;-1.18;98.49
75933;BME280;64803;52.356;5.310;2022-12-17T15:06:53;103003.66;;;-1.23;99.21
75933;BME280;64803;52.356;5.310;2022-12-17T15:09:19;102995.06;;;-1.28;99.55
75933;BME280;64803;52.356;5.310;2022-12-17T15:11:45;103015.41;;;-1.33;99.79
75933;BME280;64803;52.356;5.310;2022-12-17T15:14:11;103018.94;;;-1.34;99.37
75933;BME280;64803;52.356;5.310;2022-12-17T15:16:37;103017.41;;;-1.41;99.90
75933;BME280;64803;52.356;5.310;2022-12-17T15:19:03;103020.16;;;-1.44;100.00
75933;BME280;64803;52.356;5.310;2022-12-17T15:21:29;103023.78;;;-1.48;100.00
75933;BME280;64803;52.356;5.310;2022-12-17T15:23:55;103020.34;;;-1.50;100.00
75933;BME280;64803;52.356;5.310;2022-12-17T15:26:22;103030.09;;;-1.53;100.00
75933;BME280;64803;52.356;5.310;2022-12-17T15:28:48;103032.78;;;-1.55;100.00
75933;BME280;64803;52.356;5.310;2022-12-17T15:31:14;103042.56;;;-1.58;100.00
75933;BME280;64803;52.356;5.310;2022-12-17T15:33:40;103047.06;;;-1.62;100.00
75933;BME280;64803;52.356;5.310;2022-12-17T15:36:12;103048.97;;;-1.67;100.00
75933;BME280;64803;52.356;5.310;2022-12-17T15:38:38;103043.00;;;-1.72;100.00